sensor_id;sensor_type;location;lat;lon;timestamp;temperature;humidity
12426;DHT22;6277;49.824;9.562;2022-12-10T00:00:35;5.50;67.00
12426;DHT22;6277;49.824;9.562;2022-12-10T00:03:00;5.50;67.10
12426;DHT22;6277;49.824;9.562;2022-12-10T00:05:26;5.50;67.10
12426;DHT22;6277;49.824;9.562;2022-12-10T00:07:52;5.50;67.00
12426;DHT22;6277;49.824;9.562;2022-12-10T00:10:18;5.40;67.00
12426;DHT22;6277;49.824;9.562;2022-12-10T00:12:43;5.40;67.00
12426;DHT22;6277;49.824;9.562;2022-12-10T00:15:09;5.40;67.00
12426;DHT22;6277;49.824;9.562;2022-12-10T00:17:35;5.40;67.00
12426;DHT22;6277;49.824;9.562;2022-12-10T00:20:01;5.40;67.00
12426;DHT22;6277;49.824;9.562;2022-12-10T00:22:27;5.40;67.00
12426;DHT22;6277;49.824;9.562;2022-12-10T00:24:52;5.40;67.00
12426;DHT22;6277;49.824;9.562;2022-12-10T00:27:18;5.40;67.00
12426;DHT22;6277;49.824;9.562;2022-12-10T00:29:43;5.50;67.10
12426;DHT22;6277;49.824;9.562;2022-12-10T00:32:09;5.40;67.00
12426;DHT22;6277;49.824;9.562;2022-12-10T00:34:34;5.40;67.00
12426;DHT22;6277;49.824;9.562;2022-12-10T00:37:00;5.40;67.00
12426;DHT22;6277;49.824;9.562;2022-12-10T00:39:26;5.40;67.00
12426;DHT22;6277;49.824;9.562;2022-12-10T00:41:52;5.50;67.10
12426;DHT22;6277;49.824;9.562;2022-12-10T00:44:17;5.40;67.00
12426;DHT22;6277;49.824;9.562;2022-12-10T00:46:43;5.40;67.00
12426;DHT22;6277;49.824;9.562;2022-12-10T00:49:10;5.40;66.90
12426;DHT22;6277;49.824;9.562;2022-12-10T00:51:35;5.50;67.00
12426;DHT22;6277;49.824;9.562;2022-12-10T00:54:02;5.40;66.90
12426;DHT22;6277;49.824;9.562;2022-12-10T00:56:30;5.40;66.90
12426;DHT22;6277;49.824;9.562;2022-12-10T00:58:57;5.40;67.00
12426;DHT22;6277;49.824;9.562;2022-12-10T01:03:59;5.40;67.00
12426;DHT22;6277;49.824;9.562;2022-12-10T01:06:28;5.40;67.10
12426;DHT22;6277;49.824;9.562;2022-12-10T01:08:59;5.40;67.10
12426;DHT22;6277;49.824;9.562;2022-12-10T01:11:28;5.30;67.00
12426;DHT22;6277;49.824;9.562;2022-12-10T01:13:54;5.40;67.10
12426;DHT22;6277;49.824;9.562;2022-12-10T01:16:21;5.40;67.10
12426;DHT22;6277;49.824;9.562;2022-12-10T01:18:48;5.30;67.10
12426;DHT22;6277;49.824;9.562;2022-12-10T01:21:16;5.30;67.00
12426;DHT22;6277;49.824;9.562;2022-12-10T01:23:43;5.30;67.10
12426;DHT22;6277;49.824;9.562;2022-12-10T01:26:13;5.30;67.00
12426;DHT22;6277;49.824;9.562;2022-12-10T01:28:40;5.30;67.00
12426;DHT22;6277;49.824;9.562;2022-12-10T01:31:08;5.30;67.00
12426;DHT22;6277;49.824;9.562;2022-12-10T01:33:34;5.20;66.90
12426;DHT22;6277;49.824;9.562;2022-12-10T01:36:06;5.20;66.90
12426;DHT22;6277;49.824;9.562;2022-12-10T01:38:32;5.20;66.80
12426;DHT22;6277;49.824;9.562;2022-12-10T01:40:59;5.20;66.80
12426;DHT22;6277;49.824;9.562;2022-12-10T01:43:25;5.10;66.70
12426;DHT22;6277;49.824;9.562;2022-12-10T01:45:50;5.10;66.70
12426;DHT22;6277;49.824;9.562;2022-12-10T01:48:16;5.00;66.70
12426;DHT22;6277;49.824;9.562;2022-12-10T01:50:42;5.00;66.70
12426;DHT22;6277;49.824;9.562;2022-12-10T01:53:07;5.00;66.80
12426;DHT22;6277;49.824;9.562;2022-12-10T01:55:48;4.90;66.80
12426;DHT22;6277;49.824;9.562;2022-12-10T01:58:17;4.90;66.80
12426;DHT22;6277;49.824;9.562;2022-12-10T02:00:50;4.80;66.80
12426;DHT22;6277;49.824;9.562;2022-12-10T02:03:28;4.80;66.90
12426;DHT22;6277;49.824;9.562;2022-12-10T02:06:06;4.80;66.90
12426;DHT22;6277;49.824;9.562;2022-12-10T02:08:44;4.80;67.00
12426;DHT22;6277;49.824;9.562;2022-12-10T02:11:18;4.80;67.00
12426;DHT22;6277;49.824;9.562;2022-12-10T02:14:12;4.80;67.00
12426;DHT22;6277;49.824;9.562;2022-12-10T02:16:44;4.70;66.90
12426;DHT22;6277;49.824;9.562;2022-12-10T02:22:11;4.70;67.10
12426;DHT22;6277;49.824;9.562;2022-12-10T02:24:38;4.70;67.10
12426;DHT22;6277;49.824;9.562;2022-12-10T02:27:10;4.60;67.10
12426;DHT22;6277;49.824;9.562;2022-12-10T02:29:38;4.60;67.10
12426;DHT22;6277;49.824;9.562;2022-12-10T02:32:10;4.60;67.10
12426;DHT22;6277;49.824;9.562;2022-12-10T02:34:43;4.60;67.20
12426;DHT22;6277;49.824;9.562;2022-12-10T02:37:14;4.60;67.20
12426;DHT22;6277;49.824;9.562;2022-12-10T02:39:45;4.60;67.20
12426;DHT22;6277;49.824;9.562;2022-12-10T02:42:11;4.60;67.10
12426;DHT22;6277;49.824;9.562;2022-12-10T02:44:40;4.50;67.00
12426;DHT22;6277;49.824;9.562;2022-12-10T02:47:07;4.50;67.10
12426;DHT22;6277;49.824;9.562;2022-12-10T02:49:34;4.50;67.10
12426;DHT22;6277;49.824;9.562;2022-12-10T02:52:09;4.40;67.10
12426;DHT22;6277;49.824;9.562;2022-12-10T02:54:49;4.40;67.20
12426;DHT22;6277;49.824;9.562;2022-12-10T02:57:21;4.40;67.20
12426;DHT22;6277;49.824;9.562;2022-12-10T03:00:05;4.30;67.20
12426;DHT22;6277;49.824;9.562;2022-12-10T03:02:57;4.30;67.30
12426;DHT22;6277;49.824;9.562;2022-12-10T03:08:12;4.30;67.40
12426;DHT22;6277;49.824;9.562;2022-12-10T03:10:55;4.30;67.30
12426;DHT22;6277;49.824;9.562;2022-12-10T03:13:27;4.20;67.40
12426;DHT22;6277;49.824;9.562;2022-12-10T03:15:54;4.20;68.00
12426;DHT22;6277;49.824;9.562;2022-12-10T03:18:22;4.20;67.40
12426;DHT22;6277;49.824;9.562;2022-12-10T03:20:50;4.10;67.50
12426;DHT22;6277;49.824;9.562;2022-12-10T03:23:19;4.10;67.40
12426;DHT22;6277;49.824;9.562;2022-12-10T03:25:47;4.10;67.50
12426;DHT22;6277;49.824;9.562;2022-12-10T03:28:13;4.00;68.10
12426;DHT22;6277;49.824;9.562;2022-12-10T03:30:40;4.00;67.40
12426;DHT22;6277;49.824;9.562;2022-12-10T03:33:08;3.90;67.40
12426;DHT22;6277;49.824;9.562;2022-12-10T03:35:33;3.90;67.30
12426;DHT22;6277;49.824;9.562;2022-12-10T03:37:59;3.90;67.40
12426;DHT22;6277;49.824;9.562;2022-12-10T03:40:25;3.80;67.30
12426;DHT22;6277;49.824;9.562;2022-12-10T03:42:51;3.80;67.30
12426;DHT22;6277;49.824;9.562;2022-12-10T03:45:17;3.80;67.30
12426;DHT22;6277;49.824;9.562;2022-12-10T03:47:43;3.70;67.20
12426;DHT22;6277;49.824;9.562;2022-12-10T03:50:09;3.60;67.30
12426;DHT22;6277;49.824;9.562;2022-12-10T03:52:35;3.60;67.30
12426;DHT22;6277;49.824;9.562;2022-12-10T03:55:01;3.50;67.30
12426;DHT22;6277;49.824;9.562;2022-12-10T03:57:27;3.50;67.10
12426;DHT22;6277;49.824;9.562;2022-12-10T03:59:52;3.40;67.30
12426;DHT22;6277;49.824;9.562;2022-12-10T04:02:18;3.40;67.30
12426;DHT22;6277;49.824;9.562;2022-12-10T04:04:43;3.30;67.20
12426;DHT22;6277;49.824;9.562;2022-12-10T04:07:09;3.30;67.30
12426;DHT22;6277;49.824;9.562;2022-12-10T04:09:35;3.20;67.20
12426;DHT22;6277;49.824;9.562;2022-12-10T04:12:00;3.20;67.90
12426;DHT22;6277;49.824;9.562;2022-12-10T04:14:26;3.10;67.10
12426;DHT22;6277;49.824;9.562;2022-12-10T04:17:11;3.00;67.00
12426;DHT22;6277;49.824;9.562;2022-12-10T04:19:37;3.00;67.00
12426;DHT22;6277;49.824;9.562;2022-12-10T04:22:03;2.90;67.00
12426;DHT22;6277;49.824;9.562;2022-12-10T04:24:58;2.80;67.10
12426;DHT22;6277;49.824;9.562;2022-12-10T04:27:42;2.80;67.20
12426;DHT22;6277;49.824;9.562;2022-12-10T04:30:11;2.70;67.30
12426;DHT22;6277;49.824;9.562;2022-12-10T04:32:36;2.70;67.50
12426;DHT22;6277;49.824;9.562;2022-12-10T04:35:03;2.70;67.60
12426;DHT22;6277;49.824;9.562;2022-12-10T04:37:29;2.60;67.60
12426;DHT22;6277;49.824;9.562;2022-12-10T04:39:55;2.60;67.70
12426;DHT22;6277;49.824;9.562;2022-12-10T04:42:21;2.50;67.60
12426;DHT22;6277;49.824;9.562;2022-12-10T04:44:47;2.50;67.70
12426;DHT22;6277;49.824;9.562;2022-12-10T04:47:13;2.50;67.60
12426;DHT22;6277;49.824;9.562;2022-12-10T04:49:39;2.40;67.60
12426;DHT22;6277;49.824;9.562;2022-12-10T04:52:06;2.40;67.60
12426;DHT22;6277;49.824;9.562;2022-12-10T04:54:32;2.40;67.70
12426;DHT22;6277;49.824;9.562;2022-12-10T04:56:58;2.30;67.70
12426;DHT22;6277;49.824;9.562;2022-12-10T04:59:23;2.30;67.70
12426;DHT22;6277;49.824;9.562;2022-12-10T05:01:49;2.30;67.70
12426;DHT22;6277;49.824;9.562;2022-12-10T05:04:17;2.30;67.60
12426;DHT22;6277;49.824;9.562;2022-12-10T05:06:43;2.20;68.20
12426;DHT22;6277;49.824;9.562;2022-12-10T05:09:12;2.10;67.50
12426;DHT22;6277;49.824;9.562;2022-12-10T05:11:38;2.10;67.60
12426;DHT22;6277;49.824;9.562;2022-12-10T05:14:04;2.10;67.70
12426;DHT22;6277;49.824;9.562;2022-12-10T05:16:31;2.00;67.80
12426;DHT22;6277;49.824;9.562;2022-12-10T05:18:57;2.00;67.90
12426;DHT22;6277;49.824;9.562;2022-12-10T05:21:24;2.00;68.00
12426;DHT22;6277;49.824;9.562;2022-12-10T05:24:10;2.00;68.20
12426;DHT22;6277;49.824;9.562;2022-12-10T05:26:36;2.00;68.30
12426;DHT22;6277;49.824;9.562;2022-12-10T05:29:02;2.10;68.50
12426;DHT22;6277;49.824;9.562;2022-12-10T05:31:29;2.10;68.60
12426;DHT22;6277;49.824;9.562;2022-12-10T05:33:56;2.10;68.70
12426;DHT22;6277;49.824;9.562;2022-12-10T05:36:25;2.20;68.80
12426;DHT22;6277;49.824;9.562;2022-12-10T05:38:51;2.30;69.00
12426;DHT22;6277;49.824;9.562;2022-12-10T05:41:20;2.30;69.00
12426;DHT22;6277;49.824;9.562;2022-12-10T05:43:47;2.40;69.10
12426;DHT22;6277;49.824;9.562;2022-12-10T05:46:18;2.50;69.20
12426;DHT22;6277;49.824;9.562;2022-12-10T05:48:44;2.50;69.20
12426;DHT22;6277;49.824;9.562;2022-12-10T05:51:13;2.60;69.20
12426;DHT22;6277;49.824;9.562;2022-12-10T05:53:39;2.70;69.30
12426;DHT22;6277;49.824;9.562;2022-12-10T05:56:10;2.70;69.20
12426;DHT22;6277;49.824;9.562;2022-12-10T05:58:37;2.80;69.20
12426;DHT22;6277;49.824;9.562;2022-12-10T06:01:08;2.80;69.10
12426;DHT22;6277;49.824;9.562;2022-12-10T06:03:34;2.90;69.20
12426;DHT22;6277;49.824;9.562;2022-12-10T06:05:59;2.90;69.10
12426;DHT22;6277;49.824;9.562;2022-12-10T06:08:25;3.00;69.10
12426;DHT22;6277;49.824;9.562;2022-12-10T06:10:51;3.00;69.10
12426;DHT22;6277;49.824;9.562;2022-12-10T06:13:16;3.00;69.10
12426;DHT22;6277;49.824;9.562;2022-12-10T06:15:42;3.10;69.10
12426;DHT22;6277;49.824;9.562;2022-12-10T06:18:08;3.10;69.20
12426;DHT22;6277;49.824;9.562;2022-12-10T06:20:33;3.20;69.30
12426;DHT22;6277;49.824;9.562;2022-12-10T06:22:59;3.20;69.20
12426;DHT22;6277;49.824;9.562;2022-12-10T06:25:25;3.30;69.20
12426;DHT22;6277;49.824;9.562;2022-12-10T06:27:50;3.30;69.20
12426;DHT22;6277;49.824;9.562;2022-12-10T06:30:16;3.40;69.20
12426;DHT22;6277;49.824;9.562;2022-12-10T06:32:41;3.40;69.10
12426;DHT22;6277;49.824;9.562;2022-12-10T06:35:10;3.50;69.10
12426;DHT22;6277;49.824;9.562;2022-12-10T06:37:36;3.50;69.10
12426;DHT22;6277;49.824;9.562;2022-12-10T06:40:02;3.50;69.10
12426;DHT22;6277;49.824;9.562;2022-12-10T06:42:28;3.50;69.00
12426;DHT22;6277;49.824;9.562;2022-12-10T06:44:54;3.60;69.00
12426;DHT22;6277;49.824;9.562;2022-12-10T06:47:19;3.60;69.00
12426;DHT22;6277;49.824;9.562;2022-12-10T06:49:45;3.60;68.90
12426;DHT22;6277;49.824;9.562;2022-12-10T06:52:10;3.60;68.80
12426;DHT22;6277;49.824;9.562;2022-12-10T06:54:36;3.60;68.90
12426;DHT22;6277;49.824;9.562;2022-12-10T06:57:01;3.60;68.90
12426;DHT22;6277;49.824;9.562;2022-12-10T06:59:27;3.60;68.90
12426;DHT22;6277;49.824;9.562;2022-12-10T07:01:52;3.70;69.00
12426;DHT22;6277;49.824;9.562;2022-12-10T07:04:18;3.70;69.00
12426;DHT22;6277;49.824;9.562;2022-12-10T07:06:44;3.70;69.10
12426;DHT22;6277;49.824;9.562;2022-12-10T07:09:09;3.70;69.10
12426;DHT22;6277;49.824;9.562;2022-12-10T07:11:35;3.80;69.10
12426;DHT22;6277;49.824;9.562;2022-12-10T07:14:01;3.80;69.10
12426;DHT22;6277;49.824;9.562;2022-12-10T07:16:29;3.80;69.10
12426;DHT22;6277;49.824;9.562;2022-12-10T07:18:56;3.90;69.10
12426;DHT22;6277;49.824;9.562;2022-12-10T07:21:25;3.90;69.00
12426;DHT22;6277;49.824;9.562;2022-12-10T07:23:52;3.90;69.00
12426;DHT22;6277;49.824;9.562;2022-12-10T07:26:19;3.90;68.90
12426;DHT22;6277;49.824;9.562;2022-12-10T07:28:45;4.00;68.90
12426;DHT22;6277;49.824;9.562;2022-12-10T07:31:11;4.00;69.00
12426;DHT22;6277;49.824;9.562;2022-12-10T07:33:36;4.00;68.90
12426;DHT22;6277;49.824;9.562;2022-12-10T07:36:06;4.00;68.90
12426;DHT22;6277;49.824;9.562;2022-12-10T07:38:33;4.00;69.00
12426;DHT22;6277;49.824;9.562;2022-12-10T07:41:03;4.00;69.00
12426;DHT22;6277;49.824;9.562;2022-12-10T07:43:28;4.00;69.10
12426;DHT22;6277;49.824;9.562;2022-12-10T07:45:55;4.10;69.10
12426;DHT22;6277;49.824;9.562;2022-12-10T07:48:20;4.10;69.10
12426;DHT22;6277;49.824;9.562;2022-12-10T07:50:46;4.10;69.10
12426;DHT22;6277;49.824;9.562;2022-12-10T07:53:11;4.10;69.10
12426;DHT22;6277;49.824;9.562;2022-12-10T07:55:37;4.20;69.20
12426;DHT22;6277;49.824;9.562;2022-12-10T07:58:03;4.20;69.20
12426;DHT22;6277;49.824;9.562;2022-12-10T08:00:29;4.20;69.10
12426;DHT22;6277;49.824;9.562;2022-12-10T08:02:54;4.30;69.20
12426;DHT22;6277;49.824;9.562;2022-12-10T08:05:20;4.30;69.20
12426;DHT22;6277;49.824;9.562;2022-12-10T08:07:45;4.40;69.20
12426;DHT22;6277;49.824;9.562;2022-12-10T08:10:11;4.40;69.30
12426;DHT22;6277;49.824;9.562;2022-12-10T08:12:36;4.40;69.20
12426;DHT22;6277;49.824;9.562;2022-12-10T08:15:02;4.50;69.40
12426;DHT22;6277;49.824;9.562;2022-12-10T08:17:28;4.50;69.40
12426;DHT22;6277;49.824;9.562;2022-12-10T08:19:53;4.60;69.40
12426;DHT22;6277;49.824;9.562;2022-12-10T08:22:20;4.60;69.40
12426;DHT22;6277;49.824;9.562;2022-12-10T08:24:46;4.70;69.50
12426;DHT22;6277;49.824;9.562;2022-12-10T08:27:11;4.70;69.40
12426;DHT22;6277;49.824;9.562;2022-12-10T08:29:37;4.80;69.50
12426;DHT22;6277;49.824;9.562;2022-12-10T08:32:03;4.90;69.50
12426;DHT22;6277;49.824;9.562;2022-12-10T08:34:28;4.90;69.30
12426;DHT22;6277;49.824;9.562;2022-12-10T08:36:54;5.00;70.00
12426;DHT22;6277;49.824;9.562;2022-12-10T08:39:19;5.10;69.40
12426;DHT22;6277;49.824;9.562;2022-12-10T08:41:45;5.10;69.50
12426;DHT22;6277;49.824;9.562;2022-12-10T08:44:12;5.20;69.50
12426;DHT22;6277;49.824;9.562;2022-12-10T08:46:38;5.20;69.40
12426;DHT22;6277;49.824;9.562;2022-12-10T08:49:04;5.30;69.20
12426;DHT22;6277;49.824;9.562;2022-12-10T08:51:30;5.30;69.20
12426;DHT22;6277;49.824;9.562;2022-12-10T08:53:55;5.30;69.10
12426;DHT22;6277;49.824;9.562;2022-12-10T08:56:21;5.30;69.10
12426;DHT22;6277;49.824;9.562;2022-12-10T08:58:47;5.30;69.20
12426;DHT22;6277;49.824;9.562;2022-12-10T09:01:15;5.30;69.30
12426;DHT22;6277;49.824;9.562;2022-12-10T09:03:41;5.40;69.30
12426;DHT22;6277;49.824;9.562;2022-12-10T09:06:11;5.40;69.20
12426;DHT22;6277;49.824;9.562;2022-12-10T09:08:37;5.40;69.10
12426;DHT22;6277;49.824;9.562;2022-12-10T09:13:31;5.40;68.80
12426;DHT22;6277;49.824;9.562;2022-12-10T09:15:57;5.30;69.40
12426;DHT22;6277;49.824;9.562;2022-12-10T09:18:22;5.30;68.80
12426;DHT22;6277;49.824;9.562;2022-12-10T09:20:48;5.30;68.80
12426;DHT22;6277;49.824;9.562;2022-12-10T09:23:14;5.30;68.80
12426;DHT22;6277;49.824;9.562;2022-12-10T09:25:39;5.30;68.80
12426;DHT22;6277;49.824;9.562;2022-12-10T09:28:05;5.40;68.90
12426;DHT22;6277;49.824;9.562;2022-12-10T09:30:30;5.40;68.90
12426;DHT22;6277;49.824;9.562;2022-12-10T09:32:56;5.40;69.50
12426;DHT22;6277;49.824;9.562;2022-12-10T09:35:21;5.40;68.90
12426;DHT22;6277;49.824;9.562;2022-12-10T09:37:47;5.50;68.80
12426;DHT22;6277;49.824;9.562;2022-12-10T09:40:18;5.50;68.80
12426;DHT22;6277;49.824;9.562;2022-12-10T09:43:00;5.50;68.80
12426;DHT22;6277;49.824;9.562;2022-12-10T09:46:26;5.50;68.80
12426;DHT22;6277;49.824;9.562;2022-12-10T09:51:05;5.50;68.70
12426;DHT22;6277;49.824;9.562;2022-12-10T09:53:34;5.50;68.60
12426;DHT22;6277;49.824;9.562;2022-12-10T09:56:00;5.50;68.70
12426;DHT22;6277;49.824;9.562;2022-12-10T09:58:27;5.50;68.80
12426;DHT22;6277;49.824;9.562;2022-12-10T10:00:59;5.50;68.80
12426;DHT22;6277;49.824;9.562;2022-12-10T10:03:26;5.50;68.80
12426;DHT22;6277;49.824;9.562;2022-12-10T10:05:53;5.60;68.90
12426;DHT22;6277;49.824;9.562;2022-12-10T10:08:33;5.60;68.90
12426;DHT22;6277;49.824;9.562;2022-12-10T10:11:00;5.70;68.90
12426;DHT22;6277;49.824;9.562;2022-12-10T10:13:37;5.70;68.90
12426;DHT22;6277;49.824;9.562;2022-12-10T10:16:35;5.80;68.80
12426;DHT22;6277;49.824;9.562;2022-12-10T10:19:16;5.80;68.60
12426;DHT22;6277;49.824;9.562;2022-12-10T10:21:50;5.90;68.70
12426;DHT22;6277;49.824;9.562;2022-12-10T10:24:21;5.90;68.70
12426;DHT22;6277;49.824;9.562;2022-12-10T10:26:48;5.90;68.70
12426;DHT22;6277;49.824;9.562;2022-12-10T10:29:18;6.00;68.70
12426;DHT22;6277;49.824;9.562;2022-12-10T10:31:45;6.00;68.70
12426;DHT22;6277;49.824;9.562;2022-12-10T10:34:22;6.10;68.70
12426;DHT22;6277;49.824;9.562;2022-12-10T10:36:56;6.10;68.50
12426;DHT22;6277;49.824;9.562;2022-12-10T10:39:31;6.20;68.60
12426;DHT22;6277;49.824;9.562;2022-12-10T10:41:59;6.30;68.50
12426;DHT22;6277;49.824;9.562;2022-12-10T10:44:28;6.30;68.50
12426;DHT22;6277;49.824;9.562;2022-12-10T10:46:58;6.40;68.50
12426;DHT22;6277;49.824;9.562;2022-12-10T10:49:29;6.50;68.60
12426;DHT22;6277;49.824;9.562;2022-12-10T10:52:06;6.50;68.60
12426;DHT22;6277;49.824;9.562;2022-12-10T10:57:04;6.70;68.70
12426;DHT22;6277;49.824;9.562;2022-12-10T10:59:33;6.80;68.70
12426;DHT22;6277;49.824;9.562;2022-12-10T11:02:16;7.00;68.80
12426;DHT22;6277;49.824;9.562;2022-12-10T11:04:53;7.10;68.60
12426;DHT22;6277;49.824;9.562;2022-12-10T11:07:21;7.20;68.10
12426;DHT22;6277;49.824;9.562;2022-12-10T11:09:48;7.40;68.40
12426;DHT22;6277;49.824;9.562;2022-12-10T11:12:28;7.40;68.10
12426;DHT22;6277;49.824;9.562;2022-12-10T11:14:54;7.50;67.70
12426;DHT22;6277;49.824;9.562;2022-12-10T11:17:23;7.60;68.00
12426;DHT22;6277;49.824;9.562;2022-12-10T11:22:29;7.80;67.20
12426;DHT22;6277;49.824;9.562;2022-12-10T11:24:56;7.80;67.30
12426;DHT22;6277;49.824;9.562;2022-12-10T11:30:08;8.00;67.60
12426;DHT22;6277;49.824;9.562;2022-12-10T11:35:57;8.30;67.40
12426;DHT22;6277;49.824;9.562;2022-12-10T11:38:39;8.50;66.80
12426;DHT22;6277;49.824;9.562;2022-12-10T11:41:26;8.50;66.60
12426;DHT22;6277;49.824;9.562;2022-12-10T11:44:19;8.50;65.70
12426;DHT22;6277;49.824;9.562;2022-12-10T11:50:26;8.50;65.60
12426;DHT22;6277;49.824;9.562;2022-12-10T11:53:27;8.50;65.90
12426;DHT22;6277;49.824;9.562;2022-12-10T11:56:15;8.60;65.60
12426;DHT22;6277;49.824;9.562;2022-12-10T12:01:39;8.70;65.50
12426;DHT22;6277;49.824;9.562;2022-12-10T12:13:02;8.90;65.30
12426;DHT22;6277;49.824;9.562;2022-12-10T12:15:32;8.90;65.90
12426;DHT22;6277;49.824;9.562;2022-12-10T12:20:59;8.90;64.70
12426;DHT22;6277;49.824;9.562;2022-12-10T12:23:31;8.90;64.90
12426;DHT22;6277;49.824;9.562;2022-12-10T12:26:10;8.90;64.80
12426;DHT22;6277;49.824;9.562;2022-12-10T12:28:55;8.80;64.20
12426;DHT22;6277;49.824;9.562;2022-12-10T12:31:29;8.70;64.70
12426;DHT22;6277;49.824;9.562;2022-12-10T12:34:13;8.50;63.90
12426;DHT22;6277;49.824;9.562;2022-12-10T12:36:41;8.40;64.00
12426;DHT22;6277;49.824;9.562;2022-12-10T12:50:10;7.20;63.90
12426;DHT22;6277;49.824;9.562;2022-12-10T12:52:43;7.00;64.20
12426;DHT22;6277;49.824;9.562;2022-12-10T12:55:54;6.80;64.30
12426;DHT22;6277;49.824;9.562;2022-12-10T12:58:13;6.60;64.50
12426;DHT22;6277;49.824;9.562;2022-12-10T13:00:43;6.40;64.50
12426;DHT22;6277;49.824;9.562;2022-12-10T13:05:55;6.10;64.90
12426;DHT22;6277;49.824;9.562;2022-12-10T13:15:50;5.80;65.90
12426;DHT22;6277;49.824;9.562;2022-12-10T13:20:49;5.70;66.20
12426;DHT22;6277;49.824;9.562;2022-12-10T13:36:35;5.80;67.00
12426;DHT22;6277;49.824;9.562;2022-12-10T13:41:31;5.80;67.00
12426;DHT22;6277;49.824;9.562;2022-12-10T13:44:32;5.80;67.00
12426;DHT22;6277;49.824;9.562;2022-12-10T13:47:05;5.90;67.20
12426;DHT22;6277;49.824;9.562;2022-12-10T13:49:54;5.90;67.10
12426;DHT22;6277;49.824;9.562;2022-12-10T14:01:13;6.10;67.00
12426;DHT22;6277;49.824;9.562;2022-12-10T14:04:14;6.10;67.10
12426;DHT22;6277;49.824;9.562;2022-12-10T14:06:44;6.10;67.30
12426;DHT22;6277;49.824;9.562;2022-12-10T14:09:19;6.10;67.10
12426;DHT22;6277;49.824;9.562;2022-12-10T14:11:51;6.10;67.10
12426;DHT22;6277;49.824;9.562;2022-12-10T14:14:28;6.10;67.10
12426;DHT22;6277;49.824;9.562;2022-12-10T14:16:55;6.10;67.10
12426;DHT22;6277;49.824;9.562;2022-12-10T14:19:24;6.10;66.90
12426;DHT22;6277;49.824;9.562;2022-12-10T14:21:52;6.10;66.90
12426;DHT22;6277;49.824;9.562;2022-12-10T14:24:29;6.00;66.80
12426;DHT22;6277;49.824;9.562;2022-12-10T14:27:17;6.00;67.00
12426;DHT22;6277;49.824;9.562;2022-12-10T14:29:48;6.00;67.00
12426;DHT22;6277;49.824;9.562;2022-12-10T14:32:16;5.90;67.00
12426;DHT22;6277;49.824;9.562;2022-12-10T14:34:51;5.90;67.10
12426;DHT22;6277;49.824;9.562;2022-12-10T14:37:19;5.90;67.00
12426;DHT22;6277;49.824;9.562;2022-12-10T14:39:48;5.80;66.90
12426;DHT22;6277;49.824;9.562;2022-12-10T14:42:16;5.80;67.00
12426;DHT22;6277;49.824;9.562;2022-12-10T14:44:43;5.80;67.10
12426;DHT22;6277;49.824;9.562;2022-12-10T14:47:16;5.70;67.10
12426;DHT22;6277;49.824;9.562;2022-12-10T14:49:45;5.70;67.00
12426;DHT22;6277;49.824;9.562;2022-12-10T14:52:17;5.70;66.90
12426;DHT22;6277;49.824;9.562;2022-12-10T14:54:44;5.70;66.90
12426;DHT22;6277;49.824;9.562;2022-12-10T14:57:38;5.60;66.80
12426;DHT22;6277;49.824;9.562;2022-12-10T15:00:15;5.60;66.70
12426;DHT22;6277;49.824;9.562;2022-12-10T15:02:44;5.60;66.70
12426;DHT22;6277;49.824;9.562;2022-12-10T15:05:23;5.60;66.70
12426;DHT22;6277;49.824;9.562;2022-12-10T15:10:41;5.50;66.60
12426;DHT22;6277;49.824;9.562;2022-12-10T15:13:13;5.60;66.60
12426;DHT22;6277;49.824;9.562;2022-12-10T15:15:43;5.40;66.50
12426;DHT22;6277;49.824;9.562;2022-12-10T15:18:16;5.30;66.50
12426;DHT22;6277;49.824;9.562;2022-12-10T15:23:19;5.30;66.60
12426;DHT22;6277;49.824;9.562;2022-12-10T15:26:10;5.20;66.50
12426;DHT22;6277;49.824;9.562;2022-12-10T15:28:40;5.20;66.60
12426;DHT22;6277;49.824;9.562;2022-12-10T15:31:22;5.10;66.50
12426;DHT22;6277;49.824;9.562;2022-12-10T15:33:56;5.10;66.60
12426;DHT22;6277;49.824;9.562;2022-12-10T15:36:42;5.10;66.50
12426;DHT22;6277;49.824;9.562;2022-12-10T15:41:47;4.90;66.30
12426;DHT22;6277;49.824;9.562;2022-12-10T15:44:34;4.80;66.20
12426;DHT22;6277;49.824;9.562;2022-12-10T15:49:34;4.60;66.10
12426;DHT22;6277;49.824;9.562;2022-12-10T15:52:00;4.60;66.10
12426;DHT22;6277;49.824;9.562;2022-12-10T15:54:36;4.50;66.10
12426;DHT22;6277;49.824;9.562;2022-12-10T15:57:14;4.40;66.10
12426;DHT22;6277;49.824;9.562;2022-12-10T15:59:42;4.30;66.10
12426;DHT22;6277;49.824;9.562;2022-12-10T16:04:56;4.10;66.10
12426;DHT22;6277;49.824;9.562;2022-12-10T16:07:22;4.10;66.10
12426;DHT22;6277;49.824;9.562;2022-12-10T16:09:47;4.00;66.10
12426;DHT22;6277;49.824;9.562;2022-12-10T16:12:14;3.90;66.10
12426;DHT22;6277;49.824;9.562;2022-12-10T16:14:47;3.90;66.20
12426;DHT22;6277;49.824;9.562;2022-12-10T16:17:14;3.80;66.20
12426;DHT22;6277;49.824;9.562;2022-12-10T16:19:40;3.80;66.20
12426;DHT22;6277;49.824;9.562;2022-12-10T16:22:05;3.70;66.20
12426;DHT22;6277;49.824;9.562;2022-12-10T16:24:31;3.70;66.30
12426;DHT22;6277;49.824;9.562;2022-12-10T16:26:56;3.60;66.30
12426;DHT22;6277;49.824;9.562;2022-12-10T16:29:22;3.60;66.30
12426;DHT22;6277;49.824;9.562;2022-12-10T16:31:48;3.60;66.30
12426;DHT22;6277;49.824;9.562;2022-12-10T16:34:14;3.50;66.40
12426;DHT22;6277;49.824;9.562;2022-12-10T16:36:40;3.50;66.40
12426;DHT22;6277;49.824;9.562;2022-12-10T16:39:05;3.40;66.30
12426;DHT22;6277;49.824;9.562;2022-12-10T16:41:31;3.40;66.30
12426;DHT22;6277;49.824;9.562;2022-12-10T16:43:57;3.30;66.30
12426;DHT22;6277;49.824;9.562;2022-12-10T16:46:23;3.30;66.40
12426;DHT22;6277;49.824;9.562;2022-12-10T16:48:48;3.30;66.40
12426;DHT22;6277;49.824;9.562;2022-12-10T16:51:24;3.20;66.40
12426;DHT22;6277;49.824;9.562;2022-12-10T16:53:51;3.20;66.40
12426;DHT22;6277;49.824;9.562;2022-12-10T16:56:17;3.10;66.40
12426;DHT22;6277;49.824;9.562;2022-12-10T16:58:43;3.10;66.40
12426;DHT22;6277;49.824;9.562;2022-12-10T17:01:20;3.10;66.60
12426;DHT22;6277;49.824;9.562;2022-12-10T17:03:47;3.00;66.70
12426;DHT22;6277;49.824;9.562;2022-12-10T17:06:13;3.00;66.70
12426;DHT22;6277;49.824;9.562;2022-12-10T17:08:39;2.90;66.80
12426;DHT22;6277;49.824;9.562;2022-12-10T17:11:15;2.90;66.90
12426;DHT22;6277;49.824;9.562;2022-12-10T17:14:03;2.90;67.10
12426;DHT22;6277;49.824;9.562;2022-12-10T17:16:30;2.90;67.10
12426;DHT22;6277;49.824;9.562;2022-12-10T17:18:56;2.90;67.20
12426;DHT22;6277;49.824;9.562;2022-12-10T17:21:22;2.90;67.20
12426;DHT22;6277;49.824;9.562;2022-12-10T17:23:48;2.90;67.40
12426;DHT22;6277;49.824;9.562;2022-12-10T17:26:28;2.90;67.50
12426;DHT22;6277;49.824;9.562;2022-12-10T17:28:59;2.90;67.60
12426;DHT22;6277;49.824;9.562;2022-12-10T17:31:25;2.90;67.60
12426;DHT22;6277;49.824;9.562;2022-12-10T17:33:50;2.90;67.60
12426;DHT22;6277;49.824;9.562;2022-12-10T17:36:16;3.00;67.70
12426;DHT22;6277;49.824;9.562;2022-12-10T17:38:42;3.00;67.80
12426;DHT22;6277;49.824;9.562;2022-12-10T17:41:08;3.00;67.80
12426;DHT22;6277;49.824;9.562;2022-12-10T17:43:35;3.00;67.90
12426;DHT22;6277;49.824;9.562;2022-12-10T17:46:01;3.00;67.90
12426;DHT22;6277;49.824;9.562;2022-12-10T17:48:26;3.10;68.00
12426;DHT22;6277;49.824;9.562;2022-12-10T17:50:52;3.00;67.90
12426;DHT22;6277;49.824;9.562;2022-12-10T17:53:18;3.10;68.00
12426;DHT22;6277;49.824;9.562;2022-12-10T17:55:56;3.10;68.00
12426;DHT22;6277;49.824;9.562;2022-12-10T17:58:22;3.10;68.10
12426;DHT22;6277;49.824;9.562;2022-12-10T18:00:49;3.10;68.60